Beaulieu, Minnesota
Current Conditions -  °F | °C
As of 4:15 PM on Sunday 25 Jan 2015 (Local Time) from K3N8 Reporting Station
Overcast Overcast  
Wind Chill: 16°   Ceiling: 5000
Heat Index: 25°   Visibility: 10mi
Dew Point: 18°   Wind: 8mph
Humidity: 76%   Direction: 210°SSW
Pressure: 29.95"   Gusts: NA
Location:  47.3584°N, 95.8016°W
Report Text: K3N8 252215Z AUTO 21007KT 10SM OVC050 M04/M08 A2995 RMK AO2 T10401076
Loading
Personal Weather Stations






























Interactive Weather Map New forecast layout! Learn more

10-Day Weather Forecast

Advertisements
Track Severe Weather on mobile